Time;durP1;ratioP1;P1;durP2;ratioP2;P2;SDS_P1;SDS_P2;PMS_P1;PMS_P2;Temp;Humidity;BMP_temperature;BMP_pressure;BME280_temperature;BME280_humidity;BME280_pressure;Samples;Min_cycle;Max_cycle;Signal;HPM_P1;HPM_P2
2022/12/31 00:01:51;;;;;;;;;;;;;;;17.89;60.88;99389.81;4974903;28;7252;-73
2022/12/31 00:04:16;;;;;;;;;;;;;;;17.92;60.79;99381.19;4954666;28;6800;-73
2022/12/31 00:06:42;;;;;;;;;;;;;;;17.95;61.11;99380.31;4962464;28;6846;-73
2022/12/31 00:09:09;;;;;;;;;;;;;;;18.01;60.31;99380.31;4963299;28;6839;-72
2022/12/31 00:11:37;;;;;;;;;;;;;;;18.06;60.61;99388.13;4961574;28;6808;-72
2022/12/31 00:14:03;;;;;;;;;;;;;;;18.09;60.08;99391.59;4978062;28;7188;-73
2022/12/31 00:16:38;;;;;;;;;;;;;;;18.11;60.73;99382.09;4963471;28;6796;-73
2022/12/31 00:19:07;;;;;;;;;;;;;;;18.13;60.88;99387.28;4956313;28;6808;-73
2022/12/31 00:21:34;;;;;;;;;;;;;;;18.16;60.59;99388.16;4941784;28;7127;-73
2022/12/31 00:24:01;;;;;;;;;;;;;;;18.16;60.48;99380.38;4961326;28;6796;-72
2022/12/31 00:26:30;;;;;;;;;;;;;;;18.13;60.53;99397.66;4954877;28;7577;-73
2022/12/31 00:28:58;;;;;;;;;;;;;;;18.09;60.62;99389.00;4968682;28;7269;-72
2022/12/31 00:31:31;;;;;;;;;;;;;;;18.08;61.32;99382.09;4990494;28;7162;-73
2022/12/31 00:33:58;;;;;;;;;;;;;;;18.09;61.12;99372.56;4959714;28;7060;-73
2022/12/31 00:36:34;;;;;;;;;;;;;;;18.12;60.69;99368.25;4977117;28;6809;-72
2022/12/31 00:39:02;;;;;;;;;;;;;;;18.12;61.12;99377.78;4989408;28;7007;-73
2022/12/31 00:41:29;;;;;;;;;;;;;;;18.20;61.24;99351.84;4986412;28;6815;-72
2022/12/31 00:43:56;;;;;;;;;;;;;;;18.28;61.34;99368.28;4958840;28;6926;-73
2022/12/31 00:46:23;;;;;;;;;;;;;;;18.31;60.53;99365.66;4961816;28;6972;-72
2022/12/31 00:48:49;;;;;;;;;;;;;;;18.37;61.11;99362.22;4951539;28;7153;-73
2022/12/31 00:51:19;;;;;;;;;;;;;;;18.37;61.00;99360.50;4957667;28;6788;-73
2022/12/31 00:53:45;;;;;;;;;;;;;;;18.42;60.49;99352.72;4986153;28;7003;-72
2022/12/31 00:56:18;;;;;;;;;;;;;;;18.51;60.52;99331.94;4973053;28;7334;-73
2022/12/31 00:58:44;;;;;;;;;;;;;;;18.53;60.57;99329.31;4985125;28;7506;-73
2022/12/31 01:01:17;;;;;;;;;;;;;;;18.59;60.31;99350.06;4989112;28;6926;-73
2022/12/31 01:03:44;;;;;;;;;;;;;;;18.68;59.80;99342.28;4957677;28;6796;-73
2022/12/31 01:06:09;;;;;;;;;;;;;;;18.79;59.38;99360.44;4960582;28;6796;-73
2022/12/31 01:08:35;;;;;;;;;;;;;;;18.87;59.82;99344.84;4967787;28;7140;-72
2022/12/31 01:14:14;;;;;;;;;;;;;;;18.93;59.14;99347.41;4960833;28;6804;-73
2022/12/31 01:16:48;;;;;;;;;;;;;;;18.98;58.72;99343.06;4948879;28;6997;-72
2022/12/31 01:19:27;;;;;;;;;;;;;;;18.88;59.36;99331.84;4957527;28;6991;-73
2022/12/31 01:21:54;;;;;;;;;;;;;;;18.76;58.99;99338.81;4985410;28;7062;-73
2022/12/31 01:24:21;;;;;;;;;;;;;;;18.68;59.83;99344.88;4960503;28;6776;-72
2022/12/31 01:26:47;;;;;;;;;;;;;;;18.70;59.47;99363.91;4978075;28;7380;-73
2022/12/31 01:29:13;;;;;;;;;;;;;;;18.69;59.17;99359.56;4953997;28;7061;-72
2022/12/31 01:31:40;;;;;;;;;;;;;;;18.67;59.96;99344.88;4983210;28;6803;-73
2022/12/31 01:34:06;;;;;;;;;;;;;;;18.66;60.04;99346.63;4960330;28;6776;-73
2022/12/31 01:36:35;;;;;;;;;;;;;;;18.67;59.81;99343.16;4959563;28;6788;-72
2022/12/31 01:39:04;;;;;;;;;;;;;;;18.76;59.23;99351.78;4957456;28;6781;-72
2022/12/31 01:41:35;;;;;;;;;;;;;;;18.87;58.88;99370.78;4954702;28;6788;-73
2022/12/31 01:44:10;;;;;;;;;;;;;;;18.96;58.65;99305.84;4955114;28;6916;-72
2022/12/31 01:46:46;;;;;;;;;;;;;;;18.95;58.83;99348.28;4955882;28;6904;-73
2022/12/31 01:49:35;;;;;;;;;;;;;;;19.00;58.19;99343.06;4944166;28;8854;-72
2022/12/31 01:52:30;;;;;;;;;;;;;;;19.00;58.22;99340.47;4956580;28;6804;-73
2022/12/31 01:55:13;;;;;;;;;;;;;;;19.08;58.50;99349.13;4955504;28;6816;-73
2022/12/31 01:57:43;;;;;;;;;;;;;;;19.12;57.60;99350.81;4954440;28;7247;-72
2022/12/31 02:00:10;;;;;;;;;;;;;;;19.16;57.59;99356.88;4960231;28;6931;-73
2022/12/31 02:02:36;;;;;;;;;;;;;;;19.15;58.01;99349.97;4986866;28;12788;-74
2022/12/31 02:05:44;;;;;;;;;;;;;;;19.15;57.47;99340.41;4953950;28;7623;-74
2022/12/31 02:08:10;;;;;;;;;;;;;;;19.18;57.66;99339.53;4901191;29;6975;-74
2022/12/31 02:10:36;;;;;;;;;;;;;;;19.20;57.09;99357.72;4888141;29;6934;-73
2022/12/31 02:13:03;;;;;;;;;;;;;;;19.23;57.18;99363.78;4905220;28;7034;-73
2022/12/31 02:16:14;;;;;;;;;;;;;;;19.26;56.77;99353.38;4956291;28;7042;-73
2022/12/31 02:19:04;;;;;;;;;;;;;;;19.33;57.28;99363.75;4955951;28;6996;-72
2022/12/31 02:21:49;;;;;;;;;;;;;;;19.33;56.71;99356.78;4983667;28;6912;-73
2022/12/31 02:24:28;;;;;;;;;;;;;;;19.40;56.26;99352.44;4946927;28;7200;-73
2022/12/31 02:27:18;;;;;;;;;;;;;;;19.38;56.65;99372.38;4985282;28;6989;-73
2022/12/31 02:30:16;;;;;;;;;;;;;;;19.42;56.54;99345.50;4959152;28;6892;-73
2022/12/31 02:32:57;;;;;;;;;;;;;;;19.39;56.27;99369.78;4954540;28;11665;-72
2022/12/31 02:35:46;;;;;;;;;;;;;;;19.46;56.68;99378.41;4955366;28;6804;-74
2022/12/31 02:38:23;;;;;;;;;;;;;;;19.47;56.02;99376.66;4955146;28;7163;-73
2022/12/31 02:40:51;;;;;;;;;;;;;;;19.54;56.21;99374.03;4978005;28;7927;-73
2022/12/31 02:43:16;;;;;;;;;;;;;;;19.54;56.31;99404.34;4985586;28;7355;-74
2022/12/31 02:45:51;;;;;;;;;;;;;;;19.52;56.18;99391.38;4984227;28;6963;-73
2022/12/31 02:48:38;;;;;;;;;;;;;;;19.51;56.48;99393.97;4985909;28;8930;-73
2022/12/31 02:51:31;;;;;;;;;;;;;;;19.41;56.41;99382.72;4971388;28;7258;-73
2022/12/31 02:54:31;;;;;;;;;;;;;;;19.35;56.84;99395.78;4956448;28;6820;-72
2022/12/31 02:57:39;;;;;;;;;;;;;;;19.33;56.92;99395.75;4954833;28;6832;-73
2022/12/31 03:03:00;;;;;;;;;;;;;;;19.27;56.91;99404.44;4958878;28;11187;-73
2022/12/31 03:05:32;;;;;;;;;;;;;;;19.27;57.47;99433.03;4982974;28;6980;-73
2022/12/31 03:07:58;;;;;;;;;;;;;;;19.23;57.38;99414.84;4984095;28;7114;-73
2022/12/31 03:10:24;;;;;;;;;;;;;;;19.08;57.91;99427.03;4958032;28;6776;-73
2022/12/31 03:12:50;;;;;;;;;;;;;;;18.96;57.90;99432.19;4937671;28;7216;-72
2022/12/31 03:15:21;;;;;;;;;;;;;;;18.81;58.57;99412.31;4986973;28;6902;-72
2022/12/31 03:18:10;;;;;;;;;;;;;;;18.67;59.53;99423.59;4960886;28;7737;-72
2022/12/31 03:23:38;;;;;;;;;;;;;;;18.54;59.97;99424.44;4957749;28;8331;-73
2022/12/31 03:26:10;;;;;;;;;;;;;;;18.46;60.37;99414.09;4950955;28;7326;-73
2022/12/31 03:28:39;;;;;;;;;;;;;;;18.52;60.50;99433.97;4955006;28;6820;-72
2022/12/31 03:31:05;;;;;;;;;;;;;;;18.57;59.61;99433.09;4976838;28;6949;-72
2022/12/31 03:33:38;;;;;;;;;;;;;;;18.63;59.72;99437.41;4989486;28;6788;-73
2022/12/31 03:36:11;;;;;;;;;;;;;;;18.65;59.73;99435.72;4948859;28;6985;-73
2022/12/31 03:38:38;;;;;;;;;;;;;;;18.71;59.42;99442.63;4980335;28;7011;-73
2022/12/31 03:41:04;;;;;;;;;;;;;;;18.67;59.69;99436.56;4977068;28;6814;-73
2022/12/31 03:43:30;;;;;;;;;;;;;;;18.63;59.79;99427.03;4958667;28;6764;-72
2022/12/31 03:45:58;;;;;;;;;;;;;;;18.63;60.04;99437.41;4958709;28;6776;-73
2022/12/31 03:48:24;;;;;;;;;;;;;;;18.62;59.90;99430.50;4967891;28;6788;-72
2022/12/31 03:50:50;;;;;;;;;;;;;;;18.63;60.12;99433.97;4978366;28;8002;-72
2022/12/31 03:53:16;;;;;;;;;;;;;;;18.57;60.20;99427.06;4975492;28;6812;-72
2022/12/31 03:55:43;;;;;;;;;;;;;;;18.53;60.36;99435.69;4964051;28;7011;-72
2022/12/31 03:58:09;;;;;;;;;;;;;;;18.57;60.05;99427.06;4957370;28;6863;-72
2022/12/31 04:00:34;;;;;;;;;;;;;;;18.59;59.70;99401.97;4961321;28;6780;-71
2022/12/31 04:03:00;;;;;;;;;;;;;;;18.64;59.84;99435.72;4959460;28;6962;-71
2022/12/31 04:05:26;;;;;;;;;;;;;;;18.71;59.78;99440.03;4976146;28;9832;-71
2022/12/31 04:07:51;;;;;;;;;;;;;;;18.78;59.44;99427.91;4956797;28;6860;-71
2022/12/31 04:10:18;;;;;;;;;;;;;;;18.87;58.88;99420.13;4959250;28;6765;-71
2022/12/31 04:12:45;;;;;;;;;;;;;;;18.94;58.74;99427.03;4963647;28;6784;-71
2022/12/31 04:15:17;;;;;;;;;;;;;;;19.05;58.54;99415.78;4956488;28;6785;-72
2022/12/31 04:17:43;;;;;;;;;;;;;;;19.06;58.61;99430.50;4963763;28;6824;-71
2022/12/31 04:20:10;;;;;;;;;;;;;;;19.10;58.78;99414.03;4962111;28;7606;-71
2022/12/31 04:22:36;;;;;;;;;;;;;;;19.15;57.94;99422.69;4961129;28;7189;-71
2022/12/31 04:25:03;;;;;;;;;;;;;;;19.23;57.98;99431.31;4956221;28;6816;-71
2022/12/31 04:27:28;;;;;;;;;;;;;;;19.29;57.99;99449.47;4960603;28;6807;-72
2022/12/31 04:29:54;;;;;;;;;;;;;;;19.33;57.40;99442.53;4960160;28;7055;-71
2022/12/31 04:32:20;;;;;;;;;;;;;;;19.40;57.65;99419.97;4977204;28;7189;-71
2022/12/31 04:34:45;;;;;;;;;;;;;;;19.45;56.83;99451.13;4956923;28;6772;-72
2022/12/31 04:37:11;;;;;;;;;;;;;;;19.42;56.90;99415.66;4960105;28;6784;-71
2022/12/31 04:39:36;;;;;;;;;;;;;;;19.44;56.53;99434.72;4961278;28;6824;-72
2022/12/31 04:42:02;;;;;;;;;;;;;;;19.51;57.05;99430.34;4957003;28;6994;-71
2022/12/31 04:44:28;;;;;;;;;;;;;;;19.58;56.20;99437.25;4962839;28;6949;-72
2022/12/31 04:46:53;;;;;;;;;;;;;;;19.57;56.17;99445.91;4962872;28;7110;-72
2022/12/31 04:49:19;;;;;;;;;;;;;;;19.59;56.70;99438.97;4958948;28;6848;-72
2022/12/31 04:51:44;;;;;;;;;;;;;;;19.61;56.13;99446.78;4957781;28;7019;-71
2022/12/31 04:54:10;;;;;;;;;;;;;;;19.57;56.15;99438.97;4959881;28;7059;-71
2022/12/31 04:56:36;;;;;;;;;;;;;;;19.56;56.27;99446.78;4960965;28;6856;-71
2022/12/31 04:59:03;;;;;;;;;;;;;;;19.60;56.46;99439.81;4978008;28;6980;-71
2022/12/31 05:01:29;;;;;;;;;;;;;;;19.53;56.01;99411.28;4961278;28;6808;-73
2022/12/31 05:03:55;;;;;;;;;;;;;;;19.52;56.42;99427.75;4950876;28;7003;-72
2022/12/31 05:06:22;;;;;;;;;;;;;;;19.51;56.56;99452.00;4977200;28;8010;-71
2022/12/31 05:08:49;;;;;;;;;;;;;;;19.59;55.91;99419.91;4989442;28;6891;-71
2022/12/31 05:11:15;;;;;;;;;;;;;;;19.57;55.99;99461.50;4978585;28;7153;-71
2022/12/31 05:13:41;;;;;;;;;;;;;;;19.64;56.20;99449.34;4970456;28;7046;-71
2022/12/31 05:16:08;;;;;;;;;;;;;;;19.66;55.67;99468.41;4958701;28;6800;-71
2022/12/31 05:18:34;;;;;;;;;;;;;;;19.66;55.64;99471.00;4963259;28;7837;-71
2022/12/31 05:21:00;;;;;;;;;;;;;;;19.69;55.81;99443.25;4963442;28;7214;-72
2022/12/31 05:23:26;;;;;;;;;;;;;;;19.55;56.55;99461.50;4962986;28;6772;-72
2022/12/31 05:25:52;;;;;;;;;;;;;;;19.35;57.14;99450.31;4960352;28;6862;-71
2022/12/31 05:28:19;;;;;;;;;;;;;;;19.24;57.23;99443.44;4965636;28;6768;-71
2022/12/31 05:30:49;;;;;;;;;;;;;;;19.20;57.50;99457.28;4953660;28;6824;-72
2022/12/31 05:33:14;;;;;;;;;;;;;;;19.14;57.50;99454.72;4975624;28;6997;-72
2022/12/31 05:35:40;;;;;;;;;;;;;;;19.19;57.55;99460.75;4971401;28;6776;-72
2022/12/31 05:38:06;;;;;;;;;;;;;;;19.26;57.94;99453.78;4942545;28;6772;-71
2022/12/31 05:40:31;;;;;;;;;;;;;;;19.29;57.23;99480.63;4969808;28;7320;-72
2022/12/31 05:42:57;;;;;;;;;;;;;;;19.40;57.63;99479.72;4947536;28;7770;-71
2022/12/31 05:45:23;;;;;;;;;;;;;;;19.53;56.98;99485.75;4967895;28;6776;-73
2022/12/31 05:47:49;;;;;;;;;;;;;;;19.58;56.75;99494.41;4973330;28;6963;-72
2022/12/31 05:50:14;;;;;;;;;;;;;;;19.62;56.77;99482.28;4973380;28;6856;-72
2022/12/31 05:52:42;;;;;;;;;;;;;;;19.70;56.40;99483.09;4972586;28;7007;-71
2022/12/31 05:55:08;;;;;;;;;;;;;;;19.72;56.70;99473.56;4975064;28;6940;-71
2022/12/31 05:57:34;;;;;;;;;;;;;;;19.77;56.45;99495.19;4971011;28;6887;-71
2022/12/31 06:00:00;;;;;;;;;;;;;;;19.82;55.99;99490.84;4945558;28;6784;-72
2022/12/31 06:02:25;;;;;;;;;;;;;;;19.84;56.27;99494.31;4951927;28;6987;-71
2022/12/31 06:04:51;;;;;;;;;;;;;;;19.89;55.29;99483.00;4989144;28;6888;-71
2022/12/31 06:07:17;;;;;;;;;;;;;;;19.97;55.47;99494.28;4954306;28;7292;-71
2022/12/31 06:09:42;;;;;;;;;;;;;;;20.03;55.09;99540.19;4957990;28;6803;-71
2022/12/31 06:12:09;;;;;;;;;;;;;;;20.16;54.97;99520.19;4961675;28;6840;-72
2022/12/31 06:14:34;;;;;;;;;;;;;;;20.20;54.66;99514.94;4954683;28;7402;-72
2022/12/31 06:17:00;;;;;;;;;;;;;;;20.19;54.64;99512.38;4974071;28;6776;-72
2022/12/31 06:19:26;;;;;;;;;;;;;;;20.19;54.47;99497.63;4975424;28;6784;-73
2022/12/31 06:21:51;;;;;;;;;;;;;;;20.17;54.65;99517.59;4985947;28;7371;-72
2022/12/31 06:24:17;;;;;;;;;;;;;;;20.12;54.68;99512.41;4956844;28;6776;-70
2022/12/31 06:26:43;;;;;;;;;;;;;;;20.09;54.45;99516.75;4956731;28;6788;-71
2022/12/31 06:29:09;;;;;;;;;;;;;;;20.05;54.98;99531.50;4970574;28;6940;-71
2022/12/31 06:31:35;;;;;;;;;;;;;;;20.03;54.97;99517.66;4950808;28;9027;-71
2022/12/31 06:34:01;;;;;;;;;;;;;;;20.00;54.92;99535.00;4963191;28;7792;-71
2022/12/31 06:36:27;;;;;;;;;;;;;;;19.99;54.95;99539.38;4957634;28;6776;-71
2022/12/31 06:38:53;;;;;;;;;;;;;;;19.90;55.30;99550.63;4953242;28;7015;-72
2022/12/31 06:41:18;;;;;;;;;;;;;;;19.79;55.36;99549.78;4987921;28;8566;-72
2022/12/31 06:43:44;;;;;;;;;;;;;;;19.76;55.83;99553.25;4970089;28;8459;-71
2022/12/31 06:46:14;;;;;;;;;;;;;;;19.75;56.07;99543.75;4976617;28;7404;-72
2022/12/31 06:48:42;;;;;;;;;;;;;;;19.79;55.79;99555.84;4959545;28;6780;-71
2022/12/31 06:51:12;;;;;;;;;;;;;;;19.83;55.71;99561.91;4991852;28;8806;-71
2022/12/31 06:53:38;;;;;;;;;;;;;;;19.84;55.51;99567.09;4970653;28;7798;-71
2022/12/31 06:56:27;;;;;;;;;;;;;;;19.82;55.60;99571.44;4986788;28;8599;-71
2022/12/31 06:58:54;;;;;;;;;;;;;;;19.80;55.94;99568.00;4956199;28;6800;-71
2022/12/31 07:01:45;;;;;;;;;;;;;;;19.84;55.38;99574.03;4991947;28;6808;-71
2022/12/31 07:04:41;;;;;;;;;;;;;;;19.79;55.32;99558.44;4961215;28;6856;-72
2022/12/31 07:07:07;;;;;;;;;;;;;;;19.75;55.69;99559.34;4963079;28;6777;-71
2022/12/31 07:10:06;;;;;;;;;;;;;;;19.78;55.71;99554.13;4961399;28;6939;-71
2022/12/31 07:13:22;;;;;;;;;;;;;;;19.85;55.81;99553.22;4964402;28;7005;-72
2022/12/31 07:16:06;;;;;;;;;;;;;;;19.98;55.03;99558.41;4946605;28;6962;-71
2022/12/31 07:19:06;;;;;;;;;;;;;;;20.03;54.69;99553.19;4956913;28;7162;-72
2022/12/31 07:21:38;;;;;;;;;;;;;;;20.11;54.29;99560.09;4989143;28;6807;-72
2022/12/31 07:24:09;;;;;;;;;;;;;;;20.20;54.21;99555.72;4965693;28;7200;-72
2022/12/31 07:27:22;;;;;;;;;;;;;;;20.23;53.98;99559.19;4986201;28;7138;-71
2022/12/31 07:30:09;;;;;;;;;;;;;;;20.23;53.75;99545.31;4962328;28;6888;-71
2022/12/31 07:33:28;;;;;;;;;;;;;;;20.26;53.58;99555.69;4974667;28;12987;-73
2022/12/31 07:36:28;;;;;;;;;;;;;;;20.28;53.13;99499.31;4972858;28;6904;-73
2022/12/31 07:39:27;;;;;;;;;;;;;;;20.27;53.03;99552.19;4964769;28;7324;-71
2022/12/31 07:42:14;;;;;;;;;;;;;;;20.36;53.27;99557.34;4962633;28;6804;-71
2022/12/31 07:45:03;;;;;;;;;;;;;;;20.31;53.08;99547.84;4960395;28;6804;-71
2022/12/31 07:47:29;;;;;;;;;;;;;;;20.19;53.16;99569.63;4996858;28;7763;-72
2022/12/31 07:49:56;;;;;;;;;;;;;;;20.09;53.56;99564.44;4992006;28;7375;-73
2022/12/31 07:52:23;;;;;;;;;;;;;;;19.98;53.89;99574.00;4992520;28;6824;-73
2022/12/31 07:54:48;;;;;;;;;;;;;;;19.91;53.94;99585.28;4948856;28;7004;-72
2022/12/31 07:57:17;;;;;;;;;;;;;;;19.85;54.22;99576.63;4993097;28;7648;-72
2022/12/31 08:00:12;;;;;;;;;;;;;;;19.88;54.22;99580.09;4948461;28;6982;-71
2022/12/31 08:03:13;;;;;;;;;;;;;;;19.88;54.30;99582.69;4963675;28;11840;-72
2022/12/31 08:06:14;;;;;;;;;;;;;;;19.75;54.63;99581.84;4974686;28;6812;-74
2022/12/31 08:09:05;;;;;;;;;;;;;;;19.80;54.66;99585.31;4957835;28;6995;-72
2022/12/31 08:11:58;;;;;;;;;;;;;;;19.89;54.48;99582.69;4958316;28;7194;-72
2022/12/31 08:14:26;;;;;;;;;;;;;;;20.00;54.18;99563.63;4954540;28;6824;-72
2022/12/31 08:16:53;;;;;;;;;;;;;;;20.07;53.61;99560.97;4960219;28;6800;-72
2022/12/31 08:19:29;;;;;;;;;;;;;;;20.10;53.41;99580.91;4959445;28;6872;-71
2022/12/31 08:22:49;;;;;;;;;;;;;;;20.20;53.49;99592.16;4962958;28;7175;-72
2022/12/31 08:25:29;;;;;;;;;;;;;;;20.25;52.85;99599.06;4954638;28;7050;-72
2022/12/31 08:28:29;;;;;;;;;;;;;;;20.36;52.90;99604.19;4964981;28;6824;-72
2022/12/31 08:31:07;;;;;;;;;;;;;;;20.45;52.75;99603.28;4956021;28;6999;-71
2022/12/31 08:33:51;;;;;;;;;;;;;;;20.54;52.44;99607.56;4962645;28;6804;-72
2022/12/31 08:36:29;;;;;;;;;;;;;;;20.58;52.37;99604.09;4990405;28;7065;-72
2022/12/31 08:39:15;;;;;;;;;;;;;;;20.62;52.50;99605.78;4970736;28;7345;-73
2022/12/31 08:41:47;;;;;;;;;;;;;;;20.66;52.07;99622.25;4958542;28;6816;-71
2022/12/31 08:44:34;;;;;;;;;;;;;;;20.62;51.75;99605.78;4975383;28;6808;-72
2022/12/31 08:47:02;;;;;;;;;;;;;;;20.60;52.21;99591.94;4959928;28;6812;-72
2022/12/31 08:49:34;;;;;;;;;;;;;;;20.55;52.23;99601.50;4959143;28;6784;-72
2022/12/31 08:52:01;;;;;;;;;;;;;;;20.45;52.16;99618.03;4973519;28;7053;-72
2022/12/31 08:54:28;;;;;;;;;;;;;;;20.43;52.69;99622.38;4961170;28;6979;-72
2022/12/31 08:57:34;;;;;;;;;;;;;;;20.48;52.57;99629.28;4989741;28;6796;-72
2022/12/31 09:00:16;;;;;;;;;;;;;;;20.52;52.47;99630.16;4961167;28;6816;-72
2022/12/31 09:03:14;;;;;;;;;;;;;;;20.61;52.21;99648.31;4973007;28;11249;-71
2022/12/31 09:06:10;;;;;;;;;;;;;;;20.77;51.74;99656.91;4962371;28;6816;-71
2022/12/31 09:09:18;;;;;;;;;;;;;;;20.84;51.83;99647.34;4962791;28;6842;-71
2022/12/31 09:12:02;;;;;;;;;;;;;;;20.93;51.73;99657.69;4968650;28;6820;-71
2022/12/31 09:15:02;;;;;;;;;;;;;;;21.01;51.17;99664.59;4977057;28;6800;-72
2022/12/31 09:17:43;;;;;;;;;;;;;;;21.05;51.34;99676.72;4955372;28;6808;-73
2022/12/31 09:20:32;;;;;;;;;;;;;;;21.09;50.95;99655.00;4958789;28;7014;-72
2022/12/31 09:23:01;;;;;;;;;;;;;;;21.15;50.76;99693.16;4960494;28;6800;-73
2022/12/31 09:25:28;;;;;;;;;;;;;;;21.18;50.48;99694.03;4964911;28;6796;-71
2022/12/31 09:28:08;;;;;;;;;;;;;;;21.25;50.17;99699.19;4989731;28;7386;-72
2022/12/31 09:30:52;;;;;;;;;;;;;;;21.23;50.16;99713.06;4968086;28;7186;-72
2022/12/31 09:33:42;;;;;;;;;;;;;;;21.31;50.18;99717.38;4961308;28;6800;-71
2022/12/31 09:36:29;;;;;;;;;;;;;;;21.34;49.89;99712.13;4977780;28;6800;-73
2022/12/31 09:39:13;;;;;;;;;;;;;;;21.36;50.30;99716.47;4962863;28;6816;-72
2022/12/31 09:42:25;;;;;;;;;;;;;;;21.35;49.78;99726.91;4959640;28;6816;-72
2022/12/31 09:45:28;;;;;;;;;;;;;;;21.37;49.96;99725.16;4961303;28;7001;-71
2022/12/31 09:48:36;;;;;;;;;;;;;;;21.34;49.92;99738.19;4969786;28;6867;-73
2022/12/31 09:51:15;;;;;;;;;;;;;;;21.31;49.52;99736.50;4958307;28;6961;-73
2022/12/31 09:54:15;;;;;;;;;;;;;;;21.38;49.46;99737.31;4973977;28;7110;-72
2022/12/31 09:57:22;;;;;;;;;;;;;;;21.38;49.61;99747.75;4960637;28;7074;-72
2022/12/31 10:00:16;;;;;;;;;;;;;;;21.43;49.75;99758.13;4995198;28;6988;-72
2022/12/31 10:03:05;;;;;;;;;;;;;;;21.46;49.14;99734.63;4962837;28;12339;-72
2022/12/31 10:06:05;;;;;;;;;;;;;;;21.42;49.27;99733.78;4959548;28;7495;-71
2022/12/31 10:09:15;;;;;;;;;;;;;;;21.49;49.11;99738.09;4956348;28;7422;-72
2022/12/31 10:11:55;;;;;;;;;;;;;;;21.51;49.14;99754.56;4979016;28;8308;-71
2022/12/31 10:14:55;;;;;;;;;;;;;;;21.56;48.81;99743.28;4960154;28;7852;-71
2022/12/31 10:17:46;;;;;;;;;;;;;;;21.55;49.06;99750.22;4951975;28;7519;-73
2022/12/31 10:20:45;;;;;;;;;;;;;;;21.59;48.90;99758.88;4959688;28;7239;-71
2022/12/31 10:23:30;;;;;;;;;;;;;;;21.66;48.90;99739.72;4958611;28;7205;-73
2022/12/31 10:26:41;;;;;;;;;;;;;;;21.69;48.75;99757.97;4954801;28;7336;-73
2022/12/31 10:29:33;;;;;;;;;;;;;;;21.67;48.53;99756.19;4952752;28;7264;-73
2022/12/31 10:32:16;;;;;;;;;;;;;;;21.68;48.37;99748.41;4959465;28;7409;-71
2022/12/31 10:35:23;;;;;;;;;;;;;;;21.67;48.47;99756.19;4960950;28;6784;-71
2022/12/31 10:38:34;;;;;;;;;;;;;;;21.69;48.65;99747.53;4966681;28;6914;-72
2022/12/31 10:41:23;;;;;;;;;;;;;;;21.65;48.26;99762.28;4958435;28;6819;-71
2022/12/31 10:44:10;;;;;;;;;;;;;;;21.68;48.71;99758.84;4960074;28;7052;-72
2022/12/31 10:47:03;;;;;;;;;;;;;;;21.66;48.51;99744.91;4959458;28;6808;-72
2022/12/31 10:49:55;;;;;;;;;;;;;;;21.65;48.38;99751.03;4963962;28;6804;-72
2022/12/31 10:53:07;;;;;;;;;;;;;;;21.66;48.17;99742.31;4959194;28;6888;-72
2022/12/31 10:56:41;;;;;;;;;;;;;;;21.72;48.37;99752.72;4965897;28;6816;-72
2022/12/31 10:59:36;;;;;;;;;;;;;;;21.73;48.42;99736.22;4960288;28;6888;-73
2022/12/31 11:02:33;;;;;;;;;;;;;;;21.84;48.19;99763.94;4979411;28;7231;-72
2022/12/31 11:05:17;;;;;;;;;;;;;;;22.05;47.99;99748.06;4951406;28;8060;-72
2022/12/31 11:08:16;;;;;;;;;;;;;;;22.15;47.81;99740.16;4959410;28;6868;-73
2022/12/31 11:10:54;;;;;;;;;;;;;;;22.22;46.84;99752.28;4957721;28;6824;-70
2022/12/31 11:14:06;;;;;;;;;;;;;;;22.26;46.63;99758.28;4961965;28;6820;-71
2022/12/31 11:17:07;;;;;;;;;;;;;;;22.27;46.87;99740.03;4961536;28;6816;-71
2022/12/31 11:20:13;;;;;;;;;;;;;;;22.22;46.60;99741.84;4959049;28;6811;-71
2022/12/31 11:23:02;;;;;;;;;;;;;;;22.13;46.68;99754.97;4961697;28;7130;-72
2022/12/31 11:25:53;;;;;;;;;;;;;;;22.03;46.57;99747.25;4962199;28;6800;-71
2022/12/31 11:29:01;;;;;;;;;;;;;;;21.93;47.12;99703.88;4961500;28;7204;-73
2022/12/31 11:31:36;;;;;;;;;;;;;;;21.91;47.02;99747.31;4978551;28;6904;-72
2022/12/31 11:34:17;;;;;;;;;;;;;;;21.95;47.09;99753.38;4959765;28;6820;-72
2022/12/31 11:37:15;;;;;;;;;;;;;;;21.97;46.95;99757.72;4961156;28;7016;-72
2022/12/31 11:40:20;;;;;;;;;;;;;;;21.96;46.77;99776.88;4964412;28;6816;-71
2022/12/31 11:43:07;;;;;;;;;;;;;;;21.88;47.10;99739.53;4959959;28;6808;-73
2022/12/31 11:45:42;;;;;;;;;;;;;;;21.85;46.39;99745.66;4957108;28;7194;-72
2022/12/31 11:48:50;;;;;;;;;;;;;;;21.92;46.81;99754.28;4960494;28;6823;-72
2022/12/31 11:51:24;;;;;;;;;;;;;;;22.02;46.48;99739.41;4962524;28;6983;-72
2022/12/31 11:54:45;;;;;;;;;;;;;;;22.05;46.60;99735.03;4960539;28;6795;-72
2022/12/31 11:57:34;;;;;;;;;;;;;;;22.14;46.75;99733.22;4991436;28;7030;-72
2022/12/31 12:00:19;;;;;;;;;;;;;;;22.24;46.62;99760.94;4983643;28;7269;-73
2022/12/31 12:02:51;;;;;;;;;;;;;;;22.23;46.18;99747.91;4964419;28;11381;-73
2022/12/31 12:05:23;;;;;;;;;;;;;;;22.27;46.09;99752.22;4975051;28;6812;-73
2022/12/31 12:07:50;;;;;;;;;;;;;;;22.22;45.83;99754.88;4962604;28;7288;-72
2022/12/31 12:10:22;;;;;;;;;;;;;;;22.13;45.88;99747.16;4988688;28;8559;-72
2022/12/31 12:12:50;;;;;;;;;;;;;;;22.03;46.02;99747.25;4963458;28;7480;-73
2022/12/31 12:15:41;;;;;;;;;;;;;;;21.92;46.11;99728.19;4973858;28;6992;-72
2022/12/31 12:18:32;;;;;;;;;;;;;;;21.69;47.06;99725.81;4960380;28;6820;-72
2022/12/31 12:21:14;;;;;;;;;;;;;;;21.42;47.97;99754.66;4976635;28;7063;-72
2022/12/31 12:23:41;;;;;;;;;;;;;;;21.32;48.01;99756.47;4963520;28;6804;-72
2022/12/31 12:26:45;;;;;;;;;;;;;;;21.36;48.13;99723.44;4974521;28;7094;-72
2022/12/31 12:29:13;;;;;;;;;;;;;;;21.44;48.07;99758.13;4959562;28;6808;-72
2022/12/31 12:31:38;;;;;;;;;;;;;;;21.51;47.18;99751.97;4960905;28;6987;-71
2022/12/31 12:34:19;;;;;;;;;;;;;;;21.54;47.51;99769.34;4978513;28;7235;-71
2022/12/31 12:36:46;;;;;;;;;;;;;;;21.46;47.72;99768.53;4984706;28;7239;-71
2022/12/31 12:39:22;;;;;;;;;;;;;;;21.33;48.15;99775.56;4963654;28;6788;-71
2022/12/31 12:42:11;;;;;;;;;;;;;;;21.31;48.10;99772.97;4950099;28;7027;-71
2022/12/31 12:44:38;;;;;;;;;;;;;;;21.36;47.83;99772.94;4978212;28;6808;-71
2022/12/31 12:47:10;;;;;;;;;;;;;;;21.39;47.99;99801.59;4964559;28;6835;-71
2022/12/31 12:49:53;;;;;;;;;;;;;;;21.29;47.91;99828.59;4965501;28;6807;-71
2022/12/31 12:52:53;;;;;;;;;;;;;;;21.05;48.65;99815.66;4960237;28;6939;-71
2022/12/31 12:56:11;;;;;;;;;;;;;;;20.74;49.96;99809.66;4987720;28;6855;-72
2022/12/31 12:59:11;;;;;;;;;;;;;;;20.38;50.79;99805.44;4962517;28;7433;-72
2022/12/31 13:01:55;;;;;;;;;;;;;;;20.20;51.42;99811.53;4960563;28;6951;-71
2022/12/31 13:05:00;;;;;;;;;;;;;;;20.15;51.11;99820.22;4969471;28;6888;-71
2022/12/31 13:08:08;;;;;;;;;;;;;;;20.07;51.23;99800.25;4913190;28;7487;-71
2022/12/31 13:11:10;;;;;;;;;;;;;;;20.12;51.22;99815.88;4951052;28;6820;-71
2022/12/31 13:14:25;;;;;;;;;;;;;;;20.09;51.15;99824.56;4958834;28;6925;-71
2022/12/31 13:17:11;;;;;;;;;;;;;;;20.02;51.51;99855.75;4949338;28;6820;-71
2022/12/31 13:20:10;;;;;;;;;;;;;;;19.94;51.49;99866.16;4958381;28;8108;-72
2022/12/31 13:23:22;;;;;;;;;;;;;;;19.77;51.55;99843.56;4978804;28;7330;-71
2022/12/31 13:26:18;;;;;;;;;;;;;;;19.50;52.44;99853.03;4953678;28;6820;-71
2022/12/31 13:28:49;;;;;;;;;;;;;;;19.31;53.37;99820.06;4983506;28;9697;-70
2022/12/31 13:31:29;;;;;;;;;;;;;;;19.21;54.29;99847.78;4984541;28;7233;-71
2022/12/31 13:34:06;;;;;;;;;;;;;;;19.23;53.95;99828.75;4961759;28;7302;-71
2022/12/31 13:36:39;;;;;;;;;;;;;;;19.26;54.60;99839.13;4961954;28;7949;-71
2022/12/31 13:39:24;;;;;;;;;;;;;;;19.29;54.15;99844.31;4986618;28;6938;-71
2022/12/31 13:42:10;;;;;;;;;;;;;;;19.38;54.49;99863.41;4949273;28;7039;-71
2022/12/31 13:44:50;;;;;;;;;;;;;;;19.41;54.12;99853.91;4955330;28;7241;-71
2022/12/31 13:47:52;;;;;;;;;;;;;;;19.45;54.30;99849.56;4960300;28;7086;-71
2022/12/31 13:50:30;;;;;;;;;;;;;;;19.47;54.09;99831.41;4971286;28;6981;-71
2022/12/31 13:53:12;;;;;;;;;;;;;;;19.51;54.22;99831.41;4985861;28;6879;-71
2022/12/31 13:56:02;;;;;;;;;;;;;;;19.54;54.33;99821.00;4959642;28;6816;-71
2022/12/31 13:58:45;;;;;;;;;;;;;;;19.58;53.82;99827.09;4959654;28;7016;-71
2022/12/31 14:01:31;;;;;;;;;;;;;;;19.56;54.17;99829.69;4992069;28;7326;-71
2022/12/31 14:04:15;;;;;;;;;;;;;;;19.56;54.48;99816.69;4946484;28;8369;-71
2022/12/31 14:06:59;;;;;;;;;;;;;;;19.57;54.09;99817.56;4951988;28;7003;-71
2022/12/31 14:09:30;;;;;;;;;;;;;;;19.55;54.16;99812.34;4956258;28;7968;-71